createdAt,value
2022-08-28T00:00:09.385Z,100513.09
2022-08-28T00:02:39.575Z,100508.44
2022-08-28T00:05:08.036Z,100507.31
2022-08-28T00:07:35.975Z,100509.50
2022-08-28T00:10:05.793Z,100520.53
2022-08-28T00:12:33.214Z,100528.00
2022-08-28T00:15:00.736Z,100518.06
2022-08-28T00:17:28.150Z,100509.50
2022-08-28T00:19:55.573Z,100518.59
2022-08-28T00:22:26.334Z,100515.84
2022-08-28T00:24:55.654Z,100517.78
2022-08-28T00:27:41.843Z,100516.97
2022-08-28T00:30:09.684Z,100517.78
2022-08-28T00:32:37.124Z,100518.59
2022-08-28T00:35:07.430Z,100515.56
2022-08-28T00:37:35.392Z,100519.16
2022-08-28T00:40:03.201Z,100520.25
2022-08-28T00:42:33.902Z,100518.31
2022-08-28T00:45:01.849Z,100510.59
2022-08-28T00:47:30.207Z,100507.31
2022-08-28T00:49:59.979Z,100512.00
2022-08-28T00:52:27.415Z,100506.50
2022-08-28T00:55:09.147Z,100506.50
2022-08-28T00:57:40.911Z,100500.16
2022-08-28T01:00:14.821Z,100504.81
2022-08-28T01:02:42.321Z,100510.34
2022-08-28T01:05:10.076Z,100503.19
2022-08-28T01:07:37.869Z,100511.19
2022-08-28T01:10:08.144Z,100505.13
2022-08-28T01:12:35.761Z,100507.56
2022-08-28T01:15:09.312Z,100505.13
2022-08-28T01:17:36.808Z,100511.19
2022-08-28T01:20:13.473Z,100509.25
2022-08-28T01:22:55.164Z,100511.19
2022-08-28T01:25:23.487Z,100510.06
2022-08-28T01:27:51.693Z,100513.94
2022-08-28T01:30:21.571Z,100514.75
2022-08-28T01:32:51.706Z,100523.28
2022-08-28T01:35:21.620Z,100523.56
2022-08-28T01:37:49.675Z,100525.50
2022-08-28T01:40:20.368Z,100532.09
2022-08-28T01:42:49.594Z,100530.19
2022-08-28T01:45:18.426Z,100539.28
2022-08-28T01:47:45.999Z,100532.69
2022-08-28T01:50:15.951Z,100526.59
2022-08-28T01:52:43.382Z,100527.16
2022-08-28T01:55:11.306Z,100529.09
2022-08-28T01:57:45.584Z,100530.19
2022-08-28T02:00:14.489Z,100524.41
2022-08-28T02:02:41.975Z,100528.53
2022-08-28T02:05:09.667Z,100523.56
2022-08-28T02:07:37.431Z,100519.72
2022-08-28T02:10:08.908Z,100522.47
2022-08-28T02:12:36.535Z,100514.22
2022-08-28T02:15:05.802Z,100516.44
2022-08-28T02:17:34.202Z,100517.25
2022-08-28T02:20:01.702Z,100513.66
2022-08-28T02:22:29.164Z,100518.06
2022-08-28T02:24:56.609Z,100512.28
2022-08-28T02:27:24.080Z,100513.09
2022-08-28T02:29:54.192Z,100515.31
2022-08-28T02:32:21.587Z,100518.06
2022-08-28T02:34:49.033Z,100514.22
2022-08-28T02:37:16.467Z,100512.28
2022-08-28T02:39:44.447Z,100511.72
2022-08-28T02:42:11.902Z,100514.47
2022-08-28T02:44:42.620Z,100508.97
2022-08-28T02:47:10.048Z,100505.66
2022-08-28T02:49:40.398Z,100511.72
2022-08-28T02:52:08.226Z,100507.03
2022-08-28T02:54:35.792Z,100510.91
2022-08-28T02:57:03.709Z,100508.69
2022-08-28T02:59:32.115Z,100502.38
2022-08-28T03:02:04.129Z,100502.91
2022-08-28T03:04:35.631Z,100497.41
2022-08-28T03:07:03.876Z,100503.47
2022-08-28T03:09:31.340Z,100499.03
2022-08-28T03:11:58.779Z,100508.16
2022-08-28T03:14:26.408Z,100492.72
2022-08-28T03:16:53.941Z,100499.03
2022-08-28T03:19:21.486Z,100508.44
2022-08-28T03:21:48.886Z,100504.56
2022-08-28T03:24:20.954Z,100495.75
2022-08-28T03:26:48.375Z,100500.16
2022-08-28T03:29:15.832Z,100500.97
2022-08-28T03:31:43.297Z,100495.75
2022-08-28T03:34:10.771Z,100496.59
2022-08-28T03:36:38.185Z,100491.34
2022-08-28T03:39:05.876Z,100492.16
2022-08-28T03:41:33.338Z,100493.28
2022-08-28T03:44:01.080Z,100486.66
2022-08-28T03:46:29.669Z,100490.22
2022-08-28T03:48:57.133Z,100494.66
2022-08-28T03:51:29.533Z,100493.84
2022-08-28T03:53:58.393Z,100500.16
2022-08-28T03:56:27.327Z,100499.63
2022-08-28T03:58:59.187Z,100495.19
2022-08-28T04:01:26.772Z,100498.50
2022-08-28T04:03:54.233Z,100500.44
2022-08-28T04:06:21.827Z,100506.75
2022-08-28T04:08:51.071Z,100507.34
2022-08-28T04:11:18.645Z,100504.31
2022-08-28T04:13:46.132Z,100499.63
2022-08-28T04:16:14.321Z,100501.81
2022-08-28T04:18:42.355Z,100504.59
2022-08-28T04:21:16.803Z,100503.75
2022-08-28T04:23:45.023Z,100507.88
2022-08-28T04:26:14.722Z,100499.06
2022-08-28T04:28:42.223Z,100506.22
2022-08-28T04:31:09.859Z,100512.84
2022-08-28T04:33:37.522Z,100506.53
2022-08-28T04:36:13.220Z,100502.09
2022-08-28T04:38:44.220Z,100501.00
2022-08-28T04:41:13.198Z,100504.84
2022-08-28T04:43:40.666Z,100504.03
2022-08-28T04:46:10.252Z,100506.78
2022-08-28T04:48:38.244Z,100500.75
2022-08-28T04:51:06.546Z,100505.97
2022-08-28T04:53:33.999Z,100500.47
2022-08-28T04:56:03.212Z,100507.59
2022-08-28T04:58:31.004Z,100513.13
2022-08-28T05:00:58.514Z,100513.13
2022-08-28T05:03:25.963Z,100509.81
2022-08-28T05:05:54.070Z,100516.16
2022-08-28T05:08:23.469Z,100515.88
2022-08-28T05:10:51.052Z,100520.56
2022-08-28T05:13:19.202Z,100518.91
2022-08-28T05:15:48.735Z,100527.16
2022-08-28T05:18:21.128Z,100521.97
2022-08-28T05:20:48.699Z,100521.97
2022-08-28T05:23:16.376Z,100518.09
2022-08-28T05:25:45.808Z,100518.91
2022-08-28T05:28:13.512Z,100522.50
2022-08-28T05:30:43.044Z,100523.31
2022-08-28T05:33:11.077Z,100526.63
2022-08-28T05:35:40.739Z,100524.72
2022-08-28T05:38:09.477Z,100528.28
2022-08-28T05:40:47.941Z,100533.81
2022-08-28T05:43:15.835Z,100529.13
2022-08-28T05:45:43.360Z,100548.13
2022-08-28T05:48:11.905Z,100548.41
2022-08-28T05:50:47.175Z,100544.81
2022-08-28T05:53:15.964Z,100549.22
2022-08-28T05:55:46.586Z,100564.66
2022-08-28T05:58:32.392Z,100569.34
2022-08-28T06:01:10.447Z,100570.44
2022-08-28T06:03:38.635Z,100574.88
2022-08-28T06:06:06.603Z,100575.97
2022-08-28T06:08:34.068Z,100575.97
2022-08-28T06:11:03.641Z,100577.06
2022-08-28T06:13:31.903Z,100572.94
2022-08-28T06:15:59.394Z,100572.13
2022-08-28T06:18:26.912Z,100573.75
2022-08-28T06:20:54.515Z,100569.06
2022-08-28T06:23:24.105Z,100575.69
2022-08-28T06:25:51.897Z,100575.69
2022-08-28T06:28:24.925Z,100570.16
2022-08-28T06:31:18.556Z,100575.41
2022-08-28T06:33:42.408Z,100580.63
2022-08-28T06:36:11.346Z,100580.94
2022-08-28T06:38:38.840Z,100587.25
2022-08-28T06:41:09.267Z,100586.13
2022-08-28T06:43:36.763Z,100590.84
2022-08-28T06:46:04.275Z,100591.66
2022-08-28T06:48:31.815Z,100589.75
2022-08-28T06:50:59.606Z,100590.00
2022-08-28T06:53:28.599Z,100582.00
2022-08-28T06:56:06.563Z,100592.75
2022-08-28T06:58:38.119Z,100600.75
2022-08-28T07:01:10.911Z,100593.31
2022-08-28T07:03:44.191Z,100599.66
2022-08-28T07:06:13.214Z,100604.34
2022-08-28T07:08:41.243Z,100601.59
2022-08-28T07:11:13.932Z,100607.91
2022-08-28T07:13:42.278Z,100615.91
2022-08-28T07:16:09.872Z,100610.66
2022-08-28T07:18:37.771Z,100618.66
2022-08-28T07:21:09.094Z,100620.59
2022-08-28T07:23:39.935Z,100618.66
2022-08-28T07:26:09.587Z,100623.34
2022-08-28T07:28:37.673Z,100626.94
2022-08-28T07:31:07.362Z,100632.44
2022-08-28T07:33:34.983Z,100637.97
2022-08-28T07:36:03.488Z,100635.19
2022-08-28T07:38:30.915Z,100639.91
2022-08-28T07:40:58.351Z,100638.78
2022-08-28T07:43:44.643Z,100642.66
2022-08-28T07:46:12.240Z,100642.34
2022-08-28T07:48:40.762Z,100647.84
2022-08-28T07:51:08.776Z,100648.72
2022-08-28T07:53:38.936Z,100649.53
2022-08-28T07:56:06.715Z,100653.38
2022-08-28T07:58:34.363Z,100656.72
2022-08-28T08:01:02.281Z,100655.03
2022-08-28T08:03:31.493Z,100657.78
2022-08-28T08:06:01.906Z,100664.13
2022-08-28T08:08:33.665Z,100659.47
2022-08-28T08:11:11.561Z,100659.75
2022-08-28T08:13:44.900Z,100653.38
2022-08-28T08:16:17.494Z,100656.97
2022-08-28T08:18:45.092Z,100664.97
2022-08-28T08:21:16.639Z,100663.31
2022-08-28T08:23:44.157Z,100668.56
2022-08-28T08:26:14.716Z,100678.75
2022-08-28T08:28:42.525Z,100681.50
2022-08-28T08:31:13.801Z,100674.34
2022-08-28T08:33:43.066Z,100663.31
2022-08-28T08:36:12.511Z,100664.41
2022-08-28T08:38:39.926Z,100660.56
2022-08-28T08:41:16.709Z,100671.56
2022-08-28T08:44:00.390Z,100671.56
2022-08-28T08:46:41.481Z,100670.50
2022-08-28T08:49:36.314Z,100664.13
2022-08-28T08:52:09.831Z,100662.19
2022-08-28T08:54:41.211Z,100664.13
2022-08-28T08:57:13.582Z,100661.91
2022-08-28T08:59:43.993Z,100660.28
2022-08-28T09:02:18.157Z,100655.03
2022-08-28T09:04:49.574Z,100652.28
2022-08-28T09:07:31.210Z,100652.56
2022-08-28T09:09:58.644Z,100654.50
2022-08-28T09:12:27.967Z,100651.19
2022-08-28T09:15:05.673Z,100652.28
2022-08-28T09:17:46.399Z,100651.19
2022-08-28T09:20:20.288Z,100649.53
2022-08-28T09:22:57.728Z,100652.84
2022-08-28T09:25:44.361Z,100644.84
2022-08-28T09:28:15.754Z,100644.56
2022-08-28T09:30:43.454Z,100648.44
2022-08-28T09:33:11.943Z,100647.31
2022-08-28T09:35:39.351Z,100647.59
2022-08-28T09:38:27.583Z,100645.69
2022-08-28T09:41:27.371Z,100642.94
2022-08-28T09:43:57.428Z,100643.47
2022-08-28T09:46:28.078Z,100641.81
2022-08-28T09:49:08.839Z,100647.31
2022-08-28T09:51:38.805Z,100654.50
2022-08-28T09:54:17.119Z,100647.31
2022-08-28T09:56:44.967Z,100658.06
2022-08-28T09:59:13.612Z,100652.84
2022-08-28T10:01:51.177Z,100652.84
2022-08-28T10:04:43.133Z,100658.34
2022-08-28T10:07:32.006Z,100658.06
2022-08-28T10:10:20.363Z,100655.59
2022-08-28T10:13:12.934Z,100654.50
2022-08-28T10:16:18.230Z,100660.00
2022-08-28T10:18:54.698Z,100659.72
2022-08-28T10:21:56.340Z,100650.91
2022-08-28T10:24:27.410Z,100647.88
2022-08-28T10:26:56.519Z,100652.56
2022-08-28T10:29:33.275Z,100657.25
2022-08-28T10:32:25.010Z,100644.56
2022-08-28T10:34:59.416Z,100646.78
2022-08-28T10:37:26.906Z,100645.13
2022-08-28T10:39:57.421Z,100640.72
2022-08-28T10:42:46.617Z,100641.53
2022-08-28T10:45:20.416Z,100636.84
2022-08-28T10:47:51.314Z,100636.84
2022-08-28T10:50:27.940Z,100638.78
2022-08-28T10:53:02.745Z,100644.28
2022-08-28T10:55:39.118Z,100641.53
2022-08-28T10:58:24.861Z,100644.03
2022-08-28T11:01:01.276Z,100639.59
2022-08-28T11:03:36.684Z,100634.09
2022-08-28T11:06:13.182Z,100637.66
2022-08-28T11:08:40.702Z,100644.84
2022-08-28T11:11:13.252Z,100635.75
2022-08-28T11:13:48.975Z,100642.91
2022-08-28T11:16:22.150Z,100642.34
2022-08-28T11:19:10.694Z,100636.56
2022-08-28T11:21:43.106Z,100641.28
2022-08-28T11:24:24.598Z,100639.34
2022-08-28T11:27:04.680Z,100643.19
2022-08-28T11:30:06.542Z,100634.09
2022-08-28T11:32:33.866Z,100648.41
2022-08-28T11:35:04.295Z,100639.59
2022-08-28T11:37:41.567Z,100639.88
2022-08-28T11:40:30.611Z,100646.78
2022-08-28T11:43:16.553Z,100645.94
2022-08-28T11:45:47.653Z,100644.03
2022-08-28T11:48:43.180Z,100642.09
2022-08-28T11:51:22.661Z,100641.28
2022-08-28T11:54:28.936Z,100638.50
2022-08-28T11:57:16.619Z,100626.63
2022-08-28T11:59:50.111Z,100624.72
2022-08-28T12:02:45.109Z,100622.25
2022-08-28T12:05:36.415Z,100617.56
2022-08-28T12:08:05.140Z,100607.88
2022-08-28T12:10:32.603Z,100606.53
2022-08-28T12:13:00.591Z,100603.78
2022-08-28T12:15:27.884Z,100602.13
2022-08-28T12:18:05.855Z,100610.41
2022-08-28T12:20:45.401Z,100595.78
2022-08-28T12:23:34.692Z,100591.09
2022-08-28T12:26:26.659Z,100590.00
2022-08-28T12:29:00.748Z,100580.63
2022-08-28T12:32:02.362Z,100585.56
2022-08-28T12:34:44.240Z,100585.56
2022-08-28T12:37:29.952Z,100580.63
2022-08-28T12:39:59.835Z,100578.69
2022-08-28T12:42:31.498Z,100564.38
2022-08-28T12:45:09.138Z,100577.88
2022-08-28T12:47:37.135Z,100569.88
2022-08-28T12:50:27.990Z,100571.81
2022-08-28T12:53:00.473Z,100572.38
2022-08-28T12:55:28.618Z,100569.59
2022-08-28T12:57:56.209Z,100565.19
2022-08-28T13:00:27.154Z,100570.69
2022-08-28T13:02:55.592Z,100567.94
2022-08-28T13:05:34.143Z,100558.84
2022-08-28T13:08:04.265Z,100563.25
2022-08-28T13:10:36.953Z,100561.34
2022-08-28T13:13:07.521Z,100562.44
2022-08-28T13:16:03.787Z,100555.28
2022-08-28T13:18:44.458Z,100553.88
2022-08-28T13:21:12.178Z,100545.06
2022-08-28T13:23:39.876Z,100541.19
2022-08-28T13:26:07.350Z,100541.19
2022-08-28T13:28:44.191Z,100531.28
2022-08-28T13:31:23.010Z,100532.94
2022-08-28T13:34:09.661Z,100534.88
2022-08-28T13:36:52.608Z,100529.34
2022-08-28T13:39:21.170Z,100532.09
2022-08-28T13:42:06.040Z,100523.03
2022-08-28T13:44:50.572Z,100523.84
2022-08-28T13:47:17.812Z,100527.41
2022-08-28T13:49:45.285Z,100522.16
2022-08-28T13:52:12.861Z,100528.25
2022-08-28T13:54:43.012Z,100535.69
2022-08-28T13:57:11.341Z,100530.72
2022-08-28T13:59:41.629Z,100530.16
2022-08-28T14:02:29.364Z,100532.94
2022-08-28T14:04:56.827Z,100537.06
2022-08-28T14:07:24.364Z,100531.03
2022-08-28T14:09:56.086Z,100521.09
2022-08-28T14:12:27.860Z,100520.00
2022-08-28T14:15:01.744Z,100528.25
2022-08-28T14:17:29.360Z,100532.09
2022-08-28T14:19:57.512Z,100527.41
2022-08-28T14:22:25.035Z,100536.53
2022-08-28T14:24:52.431Z,100540.09
2022-08-28T14:27:20.399Z,100537.34
2022-08-28T14:29:49.096Z,100528.25
2022-08-28T14:32:16.618Z,100525.50
2022-08-28T14:34:44.089Z,100528.25
2022-08-28T14:37:11.536Z,100532.94
2022-08-28T14:39:38.912Z,100531.84
2022-08-28T14:42:11.590Z,100531.84
2022-08-28T14:44:40.578Z,100527.97
2022-08-28T14:47:08.346Z,100523.56
2022-08-28T14:49:35.940Z,100527.97
2022-08-28T14:52:03.608Z,100523.56
2022-08-28T14:54:31.062Z,100522.44
2022-08-28T14:56:58.508Z,100514.19
2022-08-28T14:59:27.563Z,100521.63
2022-08-28T15:01:58.050Z,100523.56
2022-08-28T15:04:26.107Z,100518.06
2022-08-28T15:06:58.434Z,100523.56
2022-08-28T15:09:26.086Z,100523.56
2022-08-28T15:11:53.674Z,100533.78
2022-08-28T15:14:21.183Z,100534.31
2022-08-28T15:16:49.275Z,100540.66
2022-08-28T15:19:17.976Z,100550.00
2022-08-28T15:21:51.139Z,100550.31
2022-08-28T15:24:21.229Z,100545.63
2022-08-28T15:26:48.737Z,100550.84
2022-08-28T15:29:16.638Z,100543.69
2022-08-28T15:31:48.449Z,100541.75
2022-08-28T15:34:23.389Z,100546.44
2022-08-28T15:36:55.118Z,100546.44
2022-08-28T15:39:44.395Z,100553.88
2022-08-28T15:42:12.013Z,100555.25
2022-08-28T15:44:39.560Z,100553.63
2022-08-28T15:47:07.046Z,100551.13
2022-08-28T15:49:36.146Z,100553.63
2022-08-28T15:52:14.391Z,100556.38
2022-08-28T15:54:42.175Z,100553.63
2022-08-28T15:57:09.801Z,100550.00
2022-08-28T15:59:49.603Z,100550.84
2022-08-28T16:02:22.333Z,100546.44
2022-08-28T16:04:50.083Z,100550.84
2022-08-28T16:07:18.059Z,100547.25
2022-08-28T16:09:45.570Z,100539.84
2022-08-28T16:12:13.135Z,100533.47
2022-08-28T16:14:41.108Z,100534.59
2022-08-28T16:17:11.174Z,100535.41
2022-08-28T16:19:40.894Z,100527.13
2022-08-28T16:22:09.441Z,100529.63
2022-08-28T16:24:37.068Z,100535.13
2022-08-28T16:27:06.490Z,100528.81
2022-08-28T16:29:37.208Z,100526.88
2022-08-28T16:32:05.288Z,100521.63
2022-08-28T16:34:33.276Z,100527.97
2022-08-28T16:37:00.852Z,100522.44
2022-08-28T16:39:28.391Z,100522.44
2022-08-28T16:41:55.812Z,100527.97
2022-08-28T16:44:25.421Z,100524.38
2022-08-28T16:46:53.640Z,100534.31
2022-08-28T16:49:24.052Z,100533.47
2022-08-28T16:51:51.622Z,100527.97
2022-08-28T16:54:22.129Z,100529.91
2022-08-28T16:56:49.677Z,100531.56
2022-08-28T16:59:18.284Z,100537.91
2022-08-28T17:01:45.965Z,100534.31
2022-08-28T17:04:20.686Z,100543.41
2022-08-28T17:06:48.206Z,100542.59
2022-08-28T17:09:15.678Z,100540.94
2022-08-28T17:11:43.347Z,100550.00
2022-08-28T17:14:12.053Z,100548.09
2022-08-28T17:16:39.574Z,100553.63
2022-08-28T17:19:07.064Z,100552.75
2022-08-28T17:21:53.013Z,100565.72
2022-08-28T17:24:20.539Z,100577.56
2022-08-28T17:26:47.984Z,100583.94
2022-08-28T17:29:15.726Z,100579.50
2022-08-28T17:31:43.793Z,100586.69
2022-08-28T17:34:13.721Z,100590.25
2022-08-28T17:36:42.142Z,100594.13
2022-08-28T17:39:12.064Z,100596.88
2022-08-28T17:41:40.790Z,100599.63
2022-08-28T17:44:11.235Z,100600.75
2022-08-28T17:46:38.732Z,100607.63
2022-08-28T17:49:07.108Z,100622.53
2022-08-28T17:51:42.297Z,100622.53
2022-08-28T17:54:12.948Z,100622.53
2022-08-28T17:56:40.886Z,100626.09
2022-08-28T17:59:08.455Z,100623.34
2022-08-28T18:01:36.151Z,100624.44
2022-08-28T18:04:05.203Z,100628.03
2022-08-28T18:06:32.680Z,100633.53
2022-08-28T18:09:00.450Z,100633.53
2022-08-28T18:11:28.197Z,100623.63
2022-08-28T18:13:55.696Z,100628.03
2022-08-28T18:16:26.492Z,100634.63
2022-08-28T18:18:57.043Z,100641.50
2022-08-28T18:21:24.842Z,100642.91
2022-08-28T18:23:52.893Z,100642.09
2022-08-28T18:26:22.679Z,100652.00
2022-08-28T18:28:51.136Z,100647.34
2022-08-28T18:31:18.724Z,100646.47
2022-08-28T18:33:47.763Z,100656.41
2022-08-28T18:36:17.838Z,100643.72
2022-08-28T18:38:47.134Z,100649.25
2022-08-28T18:41:14.677Z,100650.91
2022-08-28T18:43:44.147Z,100651.19
2022-08-28T18:46:13.644Z,100653.13
2022-08-28T18:48:41.673Z,100661.13
2022-08-28T18:51:12.965Z,100658.63
2022-08-28T18:53:42.396Z,100676.81
2022-08-28T18:56:12.133Z,100672.13
2022-08-28T18:58:40.772Z,100675.97
2022-08-28T19:01:09.318Z,100677.66
2022-08-28T19:03:36.834Z,100677.66
2022-08-28T19:06:06.265Z,100671.28
2022-08-28T19:08:35.367Z,100685.06
2022-08-28T19:11:07.610Z,100687.00
2022-08-28T19:13:35.905Z,100682.63
2022-08-28T19:16:04.017Z,100682.31
2022-08-28T19:18:31.582Z,100681.50
2022-08-28T19:21:06.128Z,100686.19
2022-08-28T19:23:36.176Z,100695.00
2022-08-28T19:26:03.612Z,100700.78
2022-08-28T19:28:31.117Z,100701.59
2022-08-28T19:30:58.620Z,100711.81
2022-08-28T19:33:26.103Z,100710.72
2022-08-28T19:35:55.038Z,100711.81
2022-08-28T19:38:22.502Z,100717.31
2022-08-28T19:40:50.074Z,100723.09
2022-08-28T19:43:17.741Z,100721.19
2022-08-28T19:45:45.267Z,100734.69
2022-08-28T19:48:12.873Z,100742.13
2022-08-28T19:50:41.061Z,100737.44
2022-08-28T19:53:09.834Z,100746.84
2022-08-28T19:55:37.299Z,100753.16
2022-08-28T19:58:06.632Z,100761.44
2022-08-28T20:00:35.491Z,100763.09
2022-08-28T20:03:03.114Z,100762.56
2022-08-28T20:05:30.600Z,100761.69
2022-08-28T20:07:58.069Z,100768.06
2022-08-28T20:10:26.823Z,100777.16
2022-08-28T20:12:54.779Z,100787.91
2022-08-28T20:15:22.284Z,100782.41
2022-08-28T20:17:50.361Z,100769.69
2022-08-28T20:20:24.601Z,100764.19
2022-08-28T20:22:54.372Z,100758.69
2022-08-28T20:25:22.016Z,100771.63
2022-08-28T20:27:49.456Z,100769.69
2022-08-28T20:30:17.426Z,100761.69
2022-08-28T20:32:45.682Z,100763.38
2022-08-28T20:35:13.445Z,100769.69
2022-08-28T20:37:44.904Z,100779.09
2022-08-28T20:40:15.942Z,100774.41
2022-08-28T20:42:43.755Z,100768.88
2022-08-28T20:45:12.420Z,100760.88
2022-08-28T20:47:39.852Z,100755.38
2022-08-28T20:50:07.566Z,100743.53
2022-08-28T20:52:35.024Z,100750.66
2022-08-28T20:55:02.603Z,100747.91
2022-08-28T20:57:30.117Z,100745.47
2022-08-28T20:59:58.225Z,100736.34
2022-08-28T21:02:28.498Z,100745.47
2022-08-28T21:04:55.953Z,100746.28
2022-08-28T21:07:24.141Z,100739.94
2022-08-28T21:09:51.631Z,100747.38
2022-08-28T21:12:37.076Z,100751.78
2022-08-28T21:15:09.400Z,100753.72
2022-08-28T21:17:36.834Z,100761.69
2022-08-28T21:20:09.287Z,100765.56
2022-08-28T21:22:38.185Z,100775.47
2022-08-28T21:25:07.714Z,100768.06
2022-08-28T21:27:35.385Z,100771.91
2022-08-28T21:30:05.767Z,100785.69
2022-08-28T21:32:34.092Z,100780.19
2022-08-28T21:35:02.922Z,100787.63
2022-08-28T21:37:31.277Z,100804.16
2022-08-28T21:39:59.788Z,100798.66
2022-08-28T21:42:30.026Z,100808.84
2022-08-28T21:44:57.571Z,100799.72
2022-08-28T21:47:27.947Z,100785.13
2022-08-28T21:49:56.261Z,100786.81
2022-08-28T21:52:26.906Z,100796.16
2022-08-28T21:55:01.651Z,100792.59
2022-08-28T21:57:29.978Z,100808.00
2022-08-28T21:59:58.477Z,100812.69
2022-08-28T22:02:26.095Z,100811.88
2022-08-28T22:04:53.807Z,100813.81
2022-08-28T22:07:21.323Z,100813.81
2022-08-28T22:09:49.367Z,100815.72
2022-08-28T22:12:16.859Z,100817.38
2022-08-28T22:14:44.421Z,100817.38
2022-08-28T22:17:12.158Z,100811.06
2022-08-28T22:19:42.843Z,100797.28
2022-08-28T22:22:33.372Z,100798.91
2022-08-28T22:25:01.115Z,100817.38
2022-08-28T22:27:30.952Z,100814.63
2022-08-28T22:29:58.654Z,100812.97
2022-08-28T22:32:26.961Z,100817.66
2022-08-28T22:34:55.277Z,100816.84
2022-08-28T22:37:23.298Z,100827.84
2022-08-28T22:39:50.810Z,100827.84
2022-08-28T22:42:18.388Z,100825.94
2022-08-28T22:44:47.073Z,100834.19
2022-08-28T22:47:14.495Z,100842.47
2022-08-28T22:49:42.718Z,100859.00
2022-08-28T22:52:10.912Z,100853.47
2022-08-28T22:54:38.522Z,100845.22
2022-08-28T22:57:07.567Z,100835.00
2022-08-28T22:59:35.063Z,100831.44
2022-08-28T23:02:05.292Z,100837.78
2022-08-28T23:04:32.768Z,100847.97
2022-08-28T23:07:00.267Z,100850.47
2022-08-28T23:09:27.826Z,100856.25
2022-08-28T23:11:55.302Z,100855.41
2022-08-28T23:14:27.654Z,100846.31
2022-08-28T23:16:56.030Z,100853.75
2022-08-28T23:19:23.953Z,100850.72
2022-08-28T23:21:51.482Z,100849.06
2022-08-28T23:24:18.959Z,100847.97
2022-08-28T23:26:46.478Z,100847.16
2022-08-28T23:29:14.032Z,100850.72
2022-08-28T23:31:41.551Z,100844.41
2022-08-28T23:34:09.096Z,100852.66
2022-08-28T23:36:36.762Z,100849.91
2022-08-28T23:39:07.991Z,100856.25
2022-08-28T23:41:35.417Z,100853.47
2022-08-28T23:44:08.709Z,100849.91
2022-08-28T23:46:36.707Z,100853.47
2022-08-28T23:49:09.012Z,100847.97
2022-08-28T23:51:36.484Z,100851.00
2022-08-28T23:54:04.003Z,100847.16
2022-08-28T23:56:33.703Z,100841.63
2022-08-28T23:59:01.229Z,100846.03
